Terminal Aerodrome Forecast
Issued by NWS

Current Version | Previous Version | Graphics & Text | Print | Product List | Glossary On
Versions: 1 2 3 4 5 6 7 8 9 10 11 12 13 14 15 16 17 18 19 20 21 22 23
000
FTUS41 KRLX 220200 AAA
TAFCKB
TAF AMD
KCKB 220222Z 2202/2224 31004KT P6SM SCT015 OVC025
      TEMPO 2202/2205 SCT008 OVC015
     FM220500 30004KT P6SM OVC015
      TEMPO 2208/2212 BKN008
     FM222100 33006KT P6SM BKN025=

USA.gov is the U.S. government's official web portal to all federal, state and local government web resources and services.